createdAt,value
2023-02-15T00:00:09.333Z,85.80
2023-02-15T00:02:37.154Z,86.86
2023-02-15T00:05:06.937Z,86.91
2023-02-15T00:07:34.721Z,86.51
2023-02-15T00:10:02.393Z,86.40
2023-02-15T00:12:30.368Z,86.50
2023-02-15T00:14:58.047Z,86.93
2023-02-15T00:17:26.288Z,86.43
2023-02-15T00:19:53.963Z,86.57
2023-02-15T00:22:23.525Z,86.75
2023-02-15T00:24:51.157Z,86.67
2023-02-15T00:27:19.121Z,86.52
2023-02-15T00:29:48.453Z,86.82
2023-02-15T00:32:17.282Z,87.67
2023-02-15T00:34:45.133Z,87.70
2023-02-15T00:37:13.142Z,87.51
2023-02-15T00:39:42.169Z,87.26
2023-02-15T00:42:10.762Z,86.96
2023-02-15T00:44:38.451Z,87.12
2023-02-15T00:47:06.390Z,86.64
2023-02-15T00:49:34.508Z,86.77
2023-02-15T00:52:02.452Z,86.60
2023-02-15T00:54:30.092Z,85.77
2023-02-15T00:56:59.107Z,85.40
2023-02-15T00:59:27.274Z,85.84
2023-02-15T01:01:54.969Z,86.05
2023-02-15T01:04:23.110Z,85.94
2023-02-15T01:06:50.916Z,86.11
2023-02-15T01:09:19.226Z,85.81
2023-02-15T01:11:46.917Z,86.00
2023-02-15T01:14:16.916Z,86.45
2023-02-15T01:17:07.011Z,86.88
2023-02-15T01:19:36.865Z,86.75
2023-02-15T01:22:04.726Z,86.96
2023-02-15T01:24:36.882Z,86.59
2023-02-15T01:27:04.720Z,86.83
2023-02-15T01:29:34.515Z,86.84
2023-02-15T01:32:02.295Z,86.93
2023-02-15T01:34:31.685Z,86.36
2023-02-15T01:36:59.340Z,86.00
2023-02-15T01:39:27.745Z,86.28
2023-02-15T01:41:55.413Z,85.30
2023-02-15T01:44:50.458Z,85.52
2023-02-15T01:47:22.788Z,86.29
2023-02-15T01:50:00.946Z,86.67
2023-02-15T01:52:28.773Z,86.79
2023-02-15T01:54:58.007Z,85.68
2023-02-15T01:57:29.519Z,86.57
2023-02-15T02:00:02.383Z,86.24
2023-02-15T02:02:40.732Z,86.54
2023-02-15T02:05:10.226Z,86.11
2023-02-15T02:07:42.160Z,86.71
2023-02-15T02:10:14.323Z,86.32
2023-02-15T02:12:44.371Z,86.75
2023-02-15T02:15:15.580Z,86.97
2023-02-15T02:17:54.028Z,86.55
2023-02-15T02:20:54.875Z,86.48
2023-02-15T02:23:39.379Z,86.92
2023-02-15T02:26:39.922Z,86.80
2023-02-15T02:29:35.699Z,87.06
2023-02-15T02:32:30.124Z,86.61
2023-02-15T02:35:07.932Z,86.87
2023-02-15T02:37:46.503Z,86.83
2023-02-15T02:40:22.734Z,86.58
2023-02-15T02:42:55.513Z,86.32
2023-02-15T02:45:28.593Z,86.55
2023-02-15T02:48:03.067Z,86.34
2023-02-15T02:50:32.849Z,86.67
2023-02-15T02:53:01.430Z,85.94
2023-02-15T02:55:35.599Z,85.53
2023-02-15T02:58:08.051Z,85.72
2023-02-15T03:00:42.114Z,85.35
2023-02-15T03:03:15.934Z,86.57
2023-02-15T03:05:49.207Z,86.75
2023-02-15T03:08:22.875Z,87.30
2023-02-15T03:10:56.611Z,86.36
2023-02-15T03:13:25.395Z,86.06
2023-02-15T03:16:13.138Z,86.55
2023-02-15T03:18:45.035Z,86.04
2023-02-15T03:21:23.359Z,86.27
2023-02-15T03:23:55.705Z,86.25
2023-02-15T03:26:26.832Z,86.89
2023-02-15T03:29:00.136Z,86.48
2023-02-15T03:31:33.659Z,86.64
2023-02-15T03:34:05.794Z,85.92
2023-02-15T03:36:41.300Z,86.30
2023-02-15T03:39:15.574Z,86.40
2023-02-15T03:41:50.785Z,86.36
2023-02-15T03:44:24.561Z,85.25
2023-02-15T03:46:58.446Z,86.19
2023-02-15T03:49:30.932Z,85.66
2023-02-15T03:52:04.717Z,86.07
2023-02-15T03:54:50.266Z,85.92
2023-02-15T03:57:38.787Z,85.58
2023-02-15T04:00:31.980Z,85.28
2023-02-15T04:03:12.981Z,85.52
2023-02-15T04:05:42.026Z,86.10
2023-02-15T04:08:11.931Z,85.03
2023-02-15T04:10:54.497Z,85.24
2023-02-15T04:13:22.948Z,84.48
2023-02-15T04:16:06.411Z,84.70
2023-02-15T04:18:55.044Z,84.87
2023-02-15T04:21:43.049Z,85.19
2023-02-15T04:24:30.724Z,85.50
2023-02-15T04:26:59.495Z,85.70
2023-02-15T04:29:28.549Z,85.52
2023-02-15T04:31:59.651Z,85.63
2023-02-15T04:34:27.660Z,85.81
2023-02-15T04:36:55.718Z,85.57
2023-02-15T04:39:24.751Z,85.17
2023-02-15T04:41:52.966Z,85.95
2023-02-15T04:44:20.638Z,85.59
2023-02-15T04:46:48.299Z,86.31
2023-02-15T04:49:16.094Z,86.04
2023-02-15T04:51:44.247Z,85.62
2023-02-15T04:54:11.925Z,85.58
2023-02-15T04:56:41.777Z,85.32
2023-02-15T04:59:11.692Z,85.87
2023-02-15T05:01:39.716Z,85.22
2023-02-15T05:04:07.848Z,85.80
2023-02-15T05:06:36.497Z,87.56
2023-02-15T05:09:04.802Z,87.64
2023-02-15T05:11:33.010Z,87.70
2023-02-15T05:14:04.849Z,87.40
2023-02-15T05:16:33.002Z,87.53
2023-02-15T05:19:00.707Z,87.56
2023-02-15T05:21:28.810Z,87.52
2023-02-15T05:23:56.460Z,86.25
2023-02-15T05:26:44.700Z,86.33
2023-02-15T05:29:13.770Z,86.57
2023-02-15T05:31:42.062Z,86.92
2023-02-15T05:34:09.924Z,86.75
2023-02-15T05:36:38.036Z,86.37
2023-02-15T05:39:06.832Z,86.57
2023-02-15T05:41:34.572Z,86.78
2023-02-15T05:44:04.867Z,86.54
2023-02-15T05:46:34.303Z,86.72
2023-02-15T05:49:02.018Z,86.97
2023-02-15T05:51:29.768Z,86.91
2023-02-15T05:53:57.428Z,86.97
2023-02-15T05:56:25.133Z,86.59
2023-02-15T05:58:54.924Z,86.82
2023-02-15T06:01:23.880Z,87.09
2023-02-15T06:03:53.302Z,87.27
2023-02-15T06:06:21.220Z,86.89
2023-02-15T06:08:49.443Z,86.98
2023-02-15T06:11:17.111Z,86.57
2023-02-15T06:13:45.851Z,86.48
2023-02-15T06:16:13.580Z,86.76
2023-02-15T06:18:41.499Z,87.52
2023-02-15T06:21:10.653Z,86.82
2023-02-15T06:23:38.919Z,86.80
2023-02-15T06:26:06.637Z,85.59
2023-02-15T06:28:34.685Z,85.96
2023-02-15T06:31:02.543Z,85.59
2023-02-15T06:33:31.388Z,85.44
2023-02-15T06:35:59.136Z,86.03
2023-02-15T06:38:28.614Z,86.08
2023-02-15T06:40:56.310Z,85.79
2023-02-15T06:43:24.172Z,85.63
2023-02-15T06:45:51.837Z,84.91
2023-02-15T06:48:19.888Z,84.15
2023-02-15T06:50:47.564Z,84.22
2023-02-15T06:53:15.942Z,84.80
2023-02-15T06:55:45.086Z,84.99
2023-02-15T06:58:13.420Z,83.88
2023-02-15T07:00:41.066Z,84.86
2023-02-15T07:03:08.940Z,84.83
2023-02-15T07:05:36.811Z,84.87
2023-02-15T07:08:05.518Z,84.09
2023-02-15T07:10:33.212Z,82.66
2023-02-15T07:13:01.513Z,83.16
2023-02-15T07:15:29.169Z,83.24
2023-02-15T07:17:57.217Z,82.82
2023-02-15T07:20:25.552Z,81.81
2023-02-15T07:22:53.738Z,82.20
2023-02-15T07:25:21.875Z,82.03
2023-02-15T07:27:50.370Z,82.71
2023-02-15T07:30:19.633Z,82.31
2023-02-15T07:33:05.917Z,82.13
2023-02-15T07:35:34.148Z,81.95
2023-02-15T07:38:02.252Z,83.35
2023-02-15T07:40:29.965Z,82.03
2023-02-15T07:43:00.467Z,80.07
2023-02-15T07:45:29.560Z,79.51
2023-02-15T07:47:57.715Z,79.30
2023-02-15T07:50:25.556Z,81.28
2023-02-15T07:52:53.567Z,80.34
2023-02-15T07:55:21.472Z,77.81
2023-02-15T07:57:51.778Z,77.25
2023-02-15T08:00:24.430Z,78.62
2023-02-15T08:03:09.383Z,77.90
2023-02-15T08:05:37.417Z,77.57
2023-02-15T08:08:06.545Z,77.00
2023-02-15T08:10:51.550Z,73.86
2023-02-15T08:13:19.649Z,74.94
2023-02-15T08:15:50.448Z,71.43
2023-02-15T08:18:20.429Z,72.54
2023-02-15T08:20:51.255Z,72.31
2023-02-15T08:23:19.541Z,71.27
2023-02-15T08:25:47.286Z,71.37
2023-02-15T08:28:15.701Z,71.01
2023-02-15T08:30:43.347Z,70.75
2023-02-15T08:33:11.526Z,71.62
2023-02-15T08:35:40.956Z,71.10
2023-02-15T08:38:08.615Z,72.21
2023-02-15T08:40:39.005Z,69.31
2023-02-15T08:43:08.045Z,69.76
2023-02-15T08:45:36.249Z,69.67
2023-02-15T08:48:03.988Z,67.63
2023-02-15T08:50:31.854Z,66.31
2023-02-15T08:53:00.889Z,66.13
2023-02-15T08:55:29.128Z,66.81
2023-02-15T08:57:56.829Z,68.03
2023-02-15T09:00:26.076Z,69.43
2023-02-15T09:02:54.200Z,70.06
2023-02-15T09:05:22.212Z,69.87
2023-02-15T09:07:50.247Z,70.53
2023-02-15T09:10:20.018Z,69.63
2023-02-15T09:12:48.075Z,67.98
2023-02-15T09:15:15.856Z,68.79
2023-02-15T09:17:43.531Z,66.92
2023-02-15T09:20:11.974Z,64.48
2023-02-15T09:22:39.810Z,63.87
2023-02-15T09:25:07.858Z,62.54
2023-02-15T09:27:37.491Z,60.78
2023-02-15T09:30:05.705Z,58.01
2023-02-15T09:32:33.403Z,57.31
2023-02-15T09:35:01.753Z,56.92
2023-02-15T09:37:29.432Z,55.85
2023-02-15T09:39:57.324Z,53.56
2023-02-15T09:42:44.612Z,53.96
2023-02-15T09:45:27.426Z,53.42
2023-02-15T09:48:09.932Z,53.50
2023-02-15T09:50:48.408Z,53.05
2023-02-15T09:53:39.041Z,51.71
2023-02-15T09:56:12.590Z,51.13
2023-02-15T09:58:50.929Z,51.11
2023-02-15T10:01:35.838Z,49.53
2023-02-15T10:04:20.036Z,48.37
2023-02-15T10:07:02.589Z,47.86
2023-02-15T10:09:44.296Z,48.88
2023-02-15T10:12:27.134Z,48.32
2023-02-15T10:15:12.753Z,48.00
2023-02-15T10:17:58.963Z,47.87
2023-02-15T10:20:35.302Z,48.78
2023-02-15T10:23:16.724Z,49.99
2023-02-15T10:25:49.360Z,48.47
2023-02-15T10:28:20.316Z,47.75
2023-02-15T10:30:52.454Z,46.70
2023-02-15T10:33:39.306Z,45.62
2023-02-15T10:36:21.356Z,47.02
2023-02-15T10:38:58.194Z,45.50
2023-02-15T10:41:38.893Z,45.17
2023-02-15T10:44:19.852Z,44.87
2023-02-15T10:47:07.198Z,44.75
2023-02-15T10:49:50.505Z,44.88
2023-02-15T10:52:32.138Z,45.63
2023-02-15T10:55:09.921Z,45.17
2023-02-15T10:57:52.691Z,44.56
2023-02-15T11:00:26.953Z,44.71
2023-02-15T11:03:17.413Z,44.76
2023-02-15T11:05:56.267Z,44.69
2023-02-15T11:08:27.074Z,44.30
2023-02-15T11:10:58.900Z,43.66
2023-02-15T11:13:30.279Z,44.56
2023-02-15T11:16:03.400Z,43.57
2023-02-15T11:18:36.626Z,43.88
2023-02-15T11:21:11.764Z,44.08
2023-02-15T11:23:45.402Z,45.29
2023-02-15T11:26:22.505Z,46.11
2023-02-15T11:28:56.066Z,46.28
2023-02-15T11:31:27.178Z,44.81
2023-02-15T11:34:00.895Z,46.00
2023-02-15T11:36:34.178Z,45.88
2023-02-15T11:39:06.954Z,47.01
2023-02-15T11:41:40.251Z,47.03
2023-02-15T11:44:12.504Z,48.16
2023-02-15T11:46:40.511Z,48.73
2023-02-15T11:49:24.630Z,49.40
2023-02-15T11:51:54.105Z,50.04
2023-02-15T11:54:28.072Z,50.17
2023-02-15T11:56:57.672Z,50.50
2023-02-15T11:59:31.647Z,50.24
2023-02-15T12:01:59.758Z,48.10
2023-02-15T12:04:34.980Z,49.10
2023-02-15T12:07:13.409Z,49.64
2023-02-15T12:09:50.387Z,50.21
2023-02-15T12:15:14.314Z,50.45
2023-02-15T12:17:50.648Z,50.64
2023-02-15T12:20:31.448Z,50.52
2023-02-15T12:23:04.324Z,48.76
2023-02-15T12:25:37.894Z,48.46
2023-02-15T12:28:17.809Z,47.50
2023-02-15T12:30:45.568Z,47.38
2023-02-15T12:33:18.938Z,49.13
2023-02-15T12:35:50.760Z,49.60
2023-02-15T12:38:26.694Z,50.33
2023-02-15T12:41:01.404Z,50.49
2023-02-15T12:43:33.845Z,50.46
2023-02-15T12:46:21.086Z,51.61
2023-02-15T12:48:49.153Z,51.22
2023-02-15T12:51:18.149Z,50.75
2023-02-15T12:53:46.016Z,51.00
2023-02-15T12:56:13.683Z,49.99
2023-02-15T12:58:42.977Z,50.33
2023-02-15T13:01:16.975Z,50.64
2023-02-15T13:04:00.096Z,50.84
2023-02-15T13:06:31.528Z,50.63
2023-02-15T13:09:07.889Z,51.44
2023-02-15T13:11:36.342Z,51.91
2023-02-15T13:14:18.223Z,52.14
2023-02-15T13:16:49.638Z,53.76
2023-02-15T13:19:20.306Z,55.04
2023-02-15T13:21:51.944Z,56.22
2023-02-15T13:24:24.134Z,57.48
2023-02-15T13:26:53.021Z,57.61
2023-02-15T13:29:25.167Z,58.50
2023-02-15T13:31:54.488Z,58.78
2023-02-15T13:34:26.647Z,59.02
2023-02-15T13:37:04.524Z,59.80
2023-02-15T13:39:40.454Z,59.86
2023-02-15T13:42:22.363Z,60.09
2023-02-15T13:45:02.142Z,59.67
2023-02-15T13:47:36.425Z,59.22
2023-02-15T13:50:21.317Z,59.67
2023-02-15T13:52:59.488Z,60.75
2023-02-15T13:55:39.528Z,61.30
2023-02-15T13:58:42.890Z,62.25
2023-02-15T14:01:16.797Z,63.01
2023-02-15T14:04:12.939Z,62.95
2023-02-15T14:07:06.277Z,63.62
2023-02-15T14:09:47.039Z,63.33
2023-02-15T14:12:36.053Z,63.89
2023-02-15T14:15:28.182Z,63.63
2023-02-15T14:18:05.955Z,63.65
2023-02-15T14:20:46.830Z,63.92
2023-02-15T14:23:31.051Z,63.27
2023-02-15T14:26:04.745Z,63.85
2023-02-15T14:28:40.492Z,63.29
2023-02-15T14:31:10.164Z,63.34
2023-02-15T14:33:41.813Z,63.23
2023-02-15T14:36:12.991Z,63.18
2023-02-15T14:38:54.246Z,62.44
2023-02-15T14:41:29.957Z,61.62
2023-02-15T14:44:09.332Z,61.36
2023-02-15T14:46:43.853Z,60.42
2023-02-15T14:49:14.691Z,59.94
2023-02-15T14:52:08.159Z,60.83
2023-02-15T14:54:59.592Z,61.77
2023-02-15T14:57:35.067Z,61.74
2023-02-15T15:00:26.396Z,61.41
2023-02-15T15:02:55.439Z,60.90
2023-02-15T15:05:27.011Z,61.53
2023-02-15T15:07:56.622Z,59.98
2023-02-15T15:10:43.444Z,57.74
2023-02-15T15:13:39.048Z,57.94
2023-02-15T15:16:30.296Z,58.18
2023-02-15T15:18:59.567Z,58.41
2023-02-15T15:22:04.557Z,59.33
2023-02-15T15:24:53.162Z,59.88
2023-02-15T15:27:45.921Z,61.28
2023-02-15T15:31:03.089Z,61.82
2023-02-15T15:34:07.609Z,61.94
2023-02-15T15:37:14.897Z,61.95
2023-02-15T15:40:30.896Z,62.45
2023-02-15T15:43:55.664Z,62.94
2023-02-15T15:46:44.466Z,63.23
2023-02-15T15:49:16.298Z,62.97
2023-02-15T15:51:46.034Z,62.54
2023-02-15T15:54:17.949Z,62.06
2023-02-15T15:56:48.533Z,61.75
2023-02-15T15:59:22.044Z,61.56
2023-02-15T16:01:51.825Z,61.44
2023-02-15T16:04:28.502Z,61.23
2023-02-15T16:06:56.256Z,60.97
2023-02-15T16:09:27.485Z,61.30
2023-02-15T16:11:59.423Z,61.80
2023-02-15T16:14:31.155Z,62.66
2023-02-15T16:17:02.561Z,63.01
2023-02-15T16:19:35.295Z,63.76
2023-02-15T16:22:04.837Z,64.21
2023-02-15T16:25:01.636Z,64.81
2023-02-15T16:27:37.358Z,65.65
2023-02-15T16:30:27.903Z,66.21
2023-02-15T16:33:06.297Z,67.02
2023-02-15T16:35:35.626Z,67.65
2023-02-15T16:38:03.935Z,68.77
2023-02-15T16:40:42.141Z,69.52
2023-02-15T16:43:17.590Z,69.73
2023-02-15T16:45:46.507Z,70.31
2023-02-15T16:48:22.110Z,70.78
2023-02-15T16:50:53.866Z,70.97
2023-02-15T16:53:25.414Z,71.33
2023-02-15T16:55:56.424Z,71.80
2023-02-15T16:58:37.884Z,72.18
2023-02-15T17:01:10.346Z,73.03
2023-02-15T17:03:40.926Z,73.42
2023-02-15T17:06:22.267Z,73.24
2023-02-15T17:08:50.265Z,73.65
2023-02-15T17:11:19.701Z,73.70
2023-02-15T17:14:15.215Z,74.38
2023-02-15T17:16:45.807Z,74.52
2023-02-15T17:19:18.519Z,75.32
2023-02-15T17:21:51.916Z,75.66
2023-02-15T17:24:23.819Z,75.83
2023-02-15T17:27:00.716Z,76.23
2023-02-15T17:29:36.228Z,76.46
2023-02-15T17:32:05.931Z,76.46
2023-02-15T17:34:48.403Z,76.65
2023-02-15T17:37:26.822Z,76.90
2023-02-15T17:39:59.827Z,77.01
2023-02-15T17:42:28.563Z,77.38
2023-02-15T17:44:56.233Z,77.45
2023-02-15T17:47:27.684Z,78.19
2023-02-15T17:49:56.844Z,78.71
2023-02-15T17:52:27.066Z,79.04
2023-02-15T17:55:26.936Z,78.99
2023-02-15T17:57:55.288Z,79.55
2023-02-15T18:00:40.972Z,80.01
2023-02-15T18:03:28.469Z,80.08
2023-02-15T18:06:16.985Z,80.54
2023-02-15T18:09:01.975Z,80.50
2023-02-15T18:11:40.177Z,80.37
2023-02-15T18:14:09.538Z,80.02
2023-02-15T18:16:41.191Z,80.40
2023-02-15T18:19:14.854Z,79.87
2023-02-15T18:21:43.985Z,80.43
2023-02-15T18:24:17.137Z,80.32
2023-02-15T18:26:44.883Z,80.67
2023-02-15T18:29:12.926Z,80.75
2023-02-15T18:31:41.395Z,81.33
2023-02-15T18:34:22.858Z,81.13
2023-02-15T18:36:53.211Z,81.45
2023-02-15T18:39:30.695Z,80.97
2023-02-15T18:41:59.301Z,81.31
2023-02-15T18:44:27.896Z,82.06
2023-02-15T18:46:56.046Z,82.04
2023-02-15T18:49:23.814Z,82.18
2023-02-15T18:51:54.180Z,81.93
2023-02-15T18:54:24.667Z,82.08
2023-02-15T18:56:56.022Z,82.11
2023-02-15T18:59:25.725Z,82.57
2023-02-15T19:01:54.055Z,82.13
2023-02-15T19:04:24.858Z,82.39
2023-02-15T19:06:55.595Z,82.63
2023-02-15T19:09:25.856Z,82.23
2023-02-15T19:11:55.590Z,81.95
2023-02-15T19:14:27.264Z,82.54
2023-02-15T19:16:56.431Z,82.29
2023-02-15T19:19:24.849Z,82.58
2023-02-15T19:21:54.877Z,83.06
2023-02-15T19:24:26.653Z,82.52
2023-02-15T19:26:54.664Z,82.69
2023-02-15T19:29:29.153Z,82.80
2023-02-15T19:31:57.998Z,82.70
2023-02-15T19:34:25.829Z,82.81
2023-02-15T19:36:56.559Z,83.45
2023-02-15T19:39:28.079Z,82.99
2023-02-15T19:41:56.451Z,83.66
2023-02-15T19:44:25.134Z,83.33
2023-02-15T19:46:52.797Z,83.86
2023-02-15T19:49:21.473Z,84.04
2023-02-15T19:51:49.244Z,83.23
2023-02-15T19:54:32.005Z,83.33
2023-02-15T19:56:59.764Z,83.77
2023-02-15T19:59:28.946Z,83.19
2023-02-15T20:01:57.346Z,84.32
2023-02-15T20:04:25.958Z,83.93
2023-02-15T20:06:56.669Z,84.71
2023-02-15T20:09:27.449Z,84.63
2023-02-15T20:11:56.766Z,84.66
2023-02-15T20:14:25.375Z,84.70
2023-02-15T20:16:53.262Z,84.92
2023-02-15T20:19:20.946Z,84.87
2023-02-15T20:21:54.361Z,84.82
2023-02-15T20:24:25.822Z,85.43
2023-02-15T20:26:53.541Z,85.49
2023-02-15T20:29:23.576Z,84.95
2023-02-15T20:31:54.024Z,84.95
2023-02-15T20:34:23.292Z,85.58
2023-02-15T20:36:52.606Z,85.25
2023-02-15T20:39:20.708Z,85.94
2023-02-15T20:41:48.652Z,86.11
2023-02-15T20:44:23.901Z,85.93
2023-02-15T20:46:53.660Z,86.12
2023-02-15T20:49:21.546Z,86.62
2023-02-15T20:51:49.455Z,86.09
2023-02-15T20:54:19.563Z,86.28
2023-02-15T20:56:48.259Z,86.19
2023-02-15T20:59:26.625Z,85.70
2023-02-15T21:01:58.791Z,85.33
2023-02-15T21:04:31.381Z,85.28
2023-02-15T21:06:59.132Z,85.26
2023-02-15T21:09:26.880Z,84.57
2023-02-15T21:11:56.251Z,85.41
2023-02-15T21:14:27.717Z,85.46
2023-02-15T21:16:55.431Z,85.55
2023-02-15T21:19:25.554Z,85.69
2023-02-15T21:21:54.444Z,85.87
2023-02-15T21:24:26.989Z,85.63
2023-02-15T21:26:55.921Z,86.36
2023-02-15T21:29:29.016Z,86.30
2023-02-15T21:31:58.365Z,85.45
2023-02-15T21:34:26.396Z,86.37
2023-02-15T21:36:54.466Z,86.93
2023-02-15T21:39:23.904Z,86.16
2023-02-15T21:42:11.008Z,86.37
2023-02-15T21:44:57.482Z,85.99
2023-02-15T21:47:44.359Z,86.34
2023-02-15T21:50:33.957Z,87.55
2023-02-15T21:53:02.006Z,89.34
2023-02-15T21:55:31.876Z,89.60
2023-02-15T21:57:59.994Z,89.62
2023-02-15T22:00:30.295Z,89.84
2023-02-15T22:03:00.893Z,89.54
2023-02-15T22:05:31.548Z,88.62
2023-02-15T22:07:59.913Z,87.07
2023-02-15T22:10:31.589Z,86.73
2023-02-15T22:13:01.778Z,87.43
2023-02-15T22:15:36.547Z,87.49
2023-02-15T22:18:05.719Z,87.23
2023-02-15T22:20:33.422Z,87.68
2023-02-15T22:23:01.074Z,87.11
2023-02-15T22:25:29.638Z,87.42
2023-02-15T22:27:57.420Z,86.98
2023-02-15T22:30:28.546Z,87.57
2023-02-15T22:32:59.079Z,87.39
2023-02-15T22:35:29.545Z,86.49
2023-02-15T22:37:57.393Z,86.60
2023-02-15T22:40:29.459Z,87.36
2023-02-15T22:42:58.823Z,86.90
2023-02-15T22:45:28.793Z,86.80
2023-02-15T22:48:00.863Z,86.87
2023-02-15T22:50:30.901Z,86.43
2023-02-15T22:53:00.817Z,87.14
2023-02-15T22:55:31.743Z,87.39
2023-02-15T22:57:59.819Z,87.29
2023-02-15T23:00:32.195Z,87.50
2023-02-15T23:03:02.212Z,87.34
2023-02-15T23:05:32.083Z,87.63
2023-02-15T23:07:59.836Z,87.19
2023-02-15T23:10:29.905Z,88.38
2023-02-15T23:13:17.496Z,88.58
2023-02-15T23:15:48.729Z,87.80
2023-02-15T23:18:20.309Z,87.01
2023-02-15T23:20:52.255Z,86.68
2023-02-15T23:23:25.663Z,87.24
2023-02-15T23:25:54.250Z,87.96
2023-02-15T23:28:25.723Z,88.76
2023-02-15T23:30:55.004Z,88.08
2023-02-15T23:33:28.558Z,88.34
2023-02-15T23:35:56.692Z,87.78
2023-02-15T23:38:26.889Z,87.72
2023-02-15T23:41:15.544Z,87.49
2023-02-15T23:43:45.575Z,87.73
2023-02-15T23:46:26.334Z,87.54
2023-02-15T23:48:55.927Z,88.68
2023-02-15T23:51:28.428Z,87.77
2023-02-15T23:53:56.093Z,88.10
2023-02-15T23:56:24.181Z,87.97
2023-02-15T23:58:51.925Z,87.83
